createdAt,value
2024-04-01T00:05:05.099Z,47.00
2024-04-01T00:10:10.751Z,37.63
2024-04-01T00:15:17.728Z,47.97
2024-04-01T00:20:23.771Z,52.90
2024-04-01T00:25:29.356Z,49.80
2024-04-01T00:30:36.219Z,44.53
2024-04-01T00:35:42.243Z,60.10
2024-04-01T00:40:47.712Z,47.60
2024-04-01T00:45:53.302Z,69.30
2024-04-01T00:50:59.721Z,50.53
2024-04-01T00:56:05.938Z,43.63
2024-04-01T01:01:12.002Z,48.63
2024-04-01T01:06:20.550Z,47.13
2024-04-01T01:11:26.291Z,66.83
2024-04-01T01:16:31.683Z,52.83
2024-04-01T01:21:37.204Z,55.30
2024-04-01T01:26:42.536Z,45.27
2024-04-01T01:31:47.927Z,51.90
2024-04-01T01:36:53.502Z,58.17
2024-04-01T01:41:59.124Z,43.00
2024-04-01T01:47:04.844Z,61.50
2024-04-01T01:52:10.236Z,55.20
2024-04-01T01:57:16.553Z,63.03
2024-04-01T02:02:22.873Z,44.00
2024-04-01T02:07:28.186Z,57.47
2024-04-01T02:12:33.515Z,40.00
2024-04-01T02:17:39.104Z,64.77
2024-04-01T02:22:45.186Z,45.73
2024-04-01T02:27:50.922Z,53.90
2024-04-01T02:32:56.469Z,41.47
2024-04-01T02:38:02.173Z,50.97
2024-04-01T02:43:08.552Z,40.43
2024-04-01T02:48:14.447Z,53.77
2024-04-01T02:53:19.881Z,51.10
2024-04-01T02:58:25.543Z,53.13
2024-04-01T03:03:30.937Z,43.20
2024-04-01T03:08:36.462Z,48.87
2024-04-01T03:13:42.818Z,50.57
2024-04-01T03:18:48.519Z,57.17
2024-04-01T03:23:54.187Z,33.23
2024-04-01T03:28:59.663Z,56.13
2024-04-01T03:34:04.995Z,43.30
2024-04-01T03:39:10.630Z,57.60
2024-04-01T03:44:16.112Z,49.47
2024-04-01T03:49:21.385Z,44.23
2024-04-01T03:54:26.927Z,49.77
2024-04-01T03:59:32.302Z,55.77
2024-04-01T04:04:38.266Z,45.13
2024-04-01T04:09:43.716Z,49.83
2024-04-01T04:14:49.266Z,54.60
2024-04-01T04:19:54.512Z,64.80
2024-04-01T04:24:59.892Z,48.33
2024-04-01T04:30:05.848Z,56.47
2024-04-01T04:35:13.060Z,50.37
2024-04-01T04:40:18.738Z,48.97
2024-04-01T04:45:24.054Z,48.27
2024-04-01T04:50:29.419Z,54.57
2024-04-01T04:55:35.184Z,45.83
2024-04-01T05:00:40.572Z,54.33
2024-04-01T05:05:46.007Z,48.90
2024-04-01T05:10:52.807Z,44.23
2024-04-01T05:15:59.802Z,44.53
2024-04-01T05:21:05.933Z,51.57
2024-04-01T05:26:11.247Z,42.00
2024-04-01T05:31:16.696Z,37.10
2024-04-01T05:36:23.878Z,55.63
2024-04-01T05:41:29.360Z,37.90
2024-04-01T05:46:34.820Z,47.53
2024-04-01T05:51:40.303Z,42.33
2024-04-01T05:56:45.849Z,44.90
2024-04-01T06:01:51.298Z,51.63
2024-04-01T06:06:56.821Z,52.30
2024-04-01T06:12:02.258Z,44.60
2024-04-01T06:17:08.081Z,46.23
2024-04-01T06:22:13.540Z,48.77
2024-04-01T06:27:19.202Z,50.30
2024-04-01T06:32:24.572Z,41.47
2024-04-01T06:37:31.493Z,41.70
2024-04-01T06:42:36.887Z,42.57
2024-04-01T06:47:42.250Z,37.67
2024-04-01T06:52:47.804Z,60.57
2024-04-01T06:57:53.548Z,51.77
2024-04-01T07:02:59.466Z,52.50
2024-04-01T07:08:05.572Z,51.20
2024-04-01T07:13:11.000Z,55.37
2024-04-01T07:18:16.379Z,59.77
2024-04-01T07:23:22.285Z,52.43
2024-04-01T07:28:27.690Z,62.07
2024-04-01T07:33:33.450Z,70.00
2024-04-01T07:38:38.909Z,56.03
2024-04-01T07:43:44.403Z,53.80
2024-04-01T07:48:49.836Z,47.87
2024-04-01T07:53:55.289Z,55.17
2024-04-01T07:59:03.067Z,55.47
2024-04-01T08:04:08.125Z,53.90
2024-04-01T08:09:13.822Z,58.37
2024-04-01T08:14:19.581Z,74.57
2024-04-01T08:19:26.704Z,73.00
2024-04-01T08:24:32.120Z,75.57
2024-04-01T08:29:37.495Z,77.77
2024-04-01T08:34:42.928Z,71.87
2024-04-01T08:39:49.070Z,86.10
2024-04-01T08:44:55.106Z,83.13
2024-04-01T08:50:03.625Z,93.17
2024-04-01T08:55:09.298Z,66.70
2024-04-01T09:00:16.259Z,69.27
2024-04-01T09:05:22.262Z,82.87
2024-04-01T09:10:27.858Z,115.70
2024-04-01T09:15:33.827Z,84.63
2024-04-01T09:20:39.570Z,77.47
2024-04-01T09:25:45.103Z,79.77
2024-04-01T09:30:50.535Z,74.57
2024-04-01T09:35:56.487Z,65.10
2024-04-01T09:41:02.333Z,68.40
2024-04-01T09:46:07.910Z,68.80
2024-04-01T09:51:15.972Z,85.97
2024-04-01T10:02:43.695Z,74.60
2024-04-01T10:08:20.122Z,69.97
2024-04-01T10:13:59.423Z,85.20
2024-04-01T10:19:27.958Z,77.07
2024-04-01T10:24:56.926Z,66.70
2024-04-01T10:36:21.057Z,82.57
2024-04-01T10:41:42.977Z,78.70
2024-04-01T10:47:12.985Z,82.67
2024-04-01T10:52:53.927Z,76.97
2024-04-01T10:58:09.918Z,70.30
2024-04-01T11:03:53.034Z,96.63
2024-04-01T11:09:20.975Z,78.43
2024-04-01T11:14:27.161Z,82.80
2024-04-01T11:20:01.753Z,99.90
2024-04-01T11:25:13.653Z,89.53
2024-04-01T11:30:26.739Z,89.17
2024-04-01T11:35:46.617Z,77.70
2024-04-01T11:40:53.259Z,84.57
2024-04-01T11:46:01.331Z,80.20
2024-04-01T11:51:07.971Z,85.20
2024-04-01T11:56:13.438Z,70.43
2024-04-01T12:01:18.888Z,85.93
2024-04-01T12:06:26.490Z,65.27
2024-04-01T12:11:33.809Z,86.10
2024-04-01T12:16:39.454Z,72.50
2024-04-01T12:21:49.280Z,81.70
2024-04-01T12:26:55.354Z,72.03
2024-04-01T12:32:01.216Z,70.67
2024-04-01T12:37:08.610Z,85.20
2024-04-01T12:42:14.440Z,82.73
2024-04-01T12:47:20.478Z,101.43
2024-04-01T12:52:28.909Z,92.43
2024-04-01T12:57:49.073Z,86.90
2024-04-01T13:03:26.314Z,84.63
2024-04-01T13:08:37.562Z,82.60
2024-04-01T13:13:46.993Z,73.83
2024-04-01T13:18:55.465Z,72.53
2024-04-01T13:24:03.845Z,87.00
2024-04-01T13:29:14.146Z,65.80
2024-04-01T13:34:28.004Z,69.83
2024-04-01T13:39:40.023Z,72.57
2024-04-01T13:44:50.081Z,74.20
2024-04-01T13:50:07.062Z,65.20
2024-04-01T13:55:16.255Z,80.57
2024-04-01T14:00:25.254Z,59.03
2024-04-01T14:05:51.529Z,84.87
2024-04-01T14:11:01.458Z,80.20
2024-04-01T14:16:10.149Z,85.33
2024-04-01T14:21:17.539Z,69.27
2024-04-01T14:26:23.106Z,84.70
2024-04-01T14:31:28.830Z,69.67
2024-04-01T14:36:36.788Z,90.47
2024-04-01T14:41:43.719Z,94.23
2024-04-01T14:46:49.170Z,85.57
2024-04-01T14:51:55.410Z,72.57
2024-04-01T14:57:01.293Z,74.07
2024-04-01T15:02:07.326Z,92.73
2024-04-01T15:07:14.865Z,77.50
2024-04-01T15:12:21.155Z,78.07
2024-04-01T15:17:27.145Z,69.77
2024-04-01T15:22:33.129Z,78.43
2024-04-01T15:27:39.074Z,61.03
2024-04-01T15:32:44.896Z,76.73
2024-04-01T15:37:50.420Z,69.73
2024-04-01T15:42:57.422Z,76.60
2024-04-01T15:48:02.809Z,67.67
2024-04-01T15:53:08.893Z,77.07
2024-04-01T15:58:15.694Z,80.20
2024-04-01T16:03:21.977Z,84.27
2024-04-01T16:08:28.470Z,87.87
2024-04-01T16:13:38.326Z,72.83
2024-04-01T16:18:46.864Z,64.37
2024-04-01T16:23:55.890Z,62.77
2024-04-01T16:29:04.443Z,82.07
2024-04-01T16:34:10.048Z,91.83
2024-04-01T16:39:16.286Z,80.83
2024-04-01T16:44:21.729Z,82.43
2024-04-01T16:49:27.048Z,62.20
2024-04-01T16:54:32.855Z,76.10
2024-04-01T16:59:40.063Z,73.47
2024-04-01T17:04:46.041Z,67.60
2024-04-01T17:09:51.656Z,74.07
2024-04-01T17:14:57.113Z,60.70
2024-04-01T17:20:05.650Z,67.47
2024-04-01T17:25:13.257Z,78.40
2024-04-01T17:30:19.223Z,79.90
2024-04-01T17:35:24.838Z,69.73
2024-04-01T17:40:30.477Z,74.97
2024-04-01T17:45:36.165Z,60.00
2024-04-01T17:50:41.547Z,78.33
2024-04-01T17:55:47.345Z,68.70
2024-04-01T18:00:53.219Z,73.50
2024-04-01T18:06:00.865Z,77.10
2024-04-01T18:11:07.535Z,77.27
2024-04-01T18:16:13.232Z,68.70
2024-04-01T18:21:20.181Z,72.27
2024-04-01T18:26:27.210Z,76.83
2024-04-01T18:31:33.025Z,81.70
2024-04-01T18:36:38.543Z,76.13
2024-04-01T18:41:44.871Z,77.90
2024-04-01T18:46:50.565Z,77.77
2024-04-01T18:51:59.058Z,90.30
2024-04-01T18:57:07.343Z,77.27
2024-04-01T19:02:12.653Z,79.03
2024-04-01T19:07:18.083Z,79.53
2024-04-01T19:12:23.387Z,92.93
2024-04-01T19:17:28.761Z,90.37
2024-04-01T19:22:34.284Z,84.27
2024-04-01T19:27:42.180Z,86.60
2024-04-01T19:32:47.568Z,82.40
2024-04-01T19:37:53.468Z,85.00
2024-04-01T19:43:00.233Z,92.77
2024-04-01T19:48:06.678Z,73.87
2024-04-01T19:53:14.706Z,71.90
2024-04-01T19:58:21.738Z,79.03
2024-04-01T20:03:27.109Z,90.23
2024-04-01T20:08:32.777Z,75.63
2024-04-01T20:13:38.311Z,83.00
2024-04-01T20:18:44.348Z,101.00
2024-04-01T20:23:49.759Z,80.97
2024-04-01T20:28:55.103Z,93.13
2024-04-01T20:34:01.521Z,96.27
2024-04-01T20:39:07.401Z,90.77
2024-04-01T20:44:14.298Z,88.20
2024-04-01T20:49:20.843Z,91.47
2024-04-01T20:54:29.546Z,82.53
2024-04-01T20:59:35.543Z,90.00
2024-04-01T21:04:40.883Z,76.47
2024-04-01T21:09:46.310Z,82.70
2024-04-01T21:14:51.755Z,75.27
2024-04-01T21:19:57.286Z,91.93
2024-04-01T21:25:02.643Z,85.67
2024-04-01T21:30:09.596Z,91.17
2024-04-01T21:35:16.623Z,77.13
2024-04-01T21:40:24.495Z,69.97
2024-04-01T21:45:30.004Z,82.67
2024-04-01T21:50:35.572Z,87.17
2024-04-01T21:55:41.302Z,91.07
2024-04-01T22:00:46.715Z,77.97
2024-04-01T22:05:52.277Z,80.27
2024-04-01T22:10:58.115Z,83.43
2024-04-01T22:16:03.447Z,83.13
2024-04-01T22:21:09.236Z,77.50
2024-04-01T22:26:14.516Z,67.47
2024-04-01T22:31:19.953Z,55.30
2024-04-01T22:36:25.414Z,82.10
2024-04-01T22:41:30.769Z,95.60
2024-04-01T22:46:36.126Z,72.17
2024-04-01T22:51:41.515Z,89.93
2024-04-01T22:56:47.067Z,95.13
2024-04-01T23:01:53.005Z,90.30
2024-04-01T23:06:58.474Z,83.00
2024-04-01T23:12:04.156Z,85.37
2024-04-01T23:17:09.739Z,54.83
2024-04-01T23:22:15.275Z,47.23
2024-04-01T23:27:20.796Z,62.93
2024-04-01T23:32:28.336Z,59.97
2024-04-01T23:37:34.947Z,58.17
2024-04-01T23:42:40.390Z,45.33
2024-04-01T23:47:47.199Z,36.93
2024-04-01T23:52:52.523Z,42.73
2024-04-01T23:57:57.827Z,27.80
